Time;durP1;ratioP1;P1;durP2;ratioP2;P2;SDS_P1;SDS_P2;PMS_P1;PMS_P2;Temp;Humidity;BMP_temperature;BMP_pressure;BME280_temperature;BME280_humidity;BME280_pressure;Samples;Min_cycle;Max_cycle;Signal;HPM_P1;HPM_P2
2022/09/19 00:02:23;;;;;;;1.10;1.10;;;16.50;61.40;;;;;;5096473;28;20032;-80
2022/09/19 00:04:48;;;;;;;0.80;0.80;;;16.50;61.40;;;;;;5062084;28;20020;-78
2022/09/19 00:07:14;;;;;;;0.80;0.80;;;16.50;61.40;;;;;;5096818;28;20070;-80
2022/09/19 00:09:40;;;;;;;1.02;1.02;;;16.50;61.50;;;;;;5096471;28;20389;-79
2022/09/19 00:12:05;;;;;;;0.70;0.70;;;16.50;62.10;;;;;;5096678;28;20446;-79
2022/09/19 00:14:34;;;;;;;0.90;0.90;;;16.50;61.50;;;;;;5096315;28;20111;-79
2022/09/19 00:17:03;;;;;;;0.68;0.68;;;16.50;61.50;;;;;;5078132;28;20024;-80
2022/09/19 00:19:29;;;;;;;0.70;0.70;;;16.50;61.60;;;;;;5078404;28;20024;-80
2022/09/19 00:21:57;;;;;;;0.80;0.80;;;16.50;61.60;;;;;;5096408;28;20054;-79
2022/09/19 00:27:09;;;;;;;0.77;0.77;;;16.50;61.60;;;;;;5096592;28;20050;-79
2022/09/19 00:29:36;;;;;;;0.60;0.60;;;16.50;61.70;;;;;;5096273;28;20343;-81
2022/09/19 00:32:07;;;;;;;1.00;1.00;;;16.50;61.70;;;;;;5095849;28;20024;-81
2022/09/19 00:34:33;;;;;;;0.80;0.80;;;16.50;61.70;;;;;;5096376;28;20032;-80
2022/09/19 00:36:58;;;;;;;0.80;0.80;;;16.50;61.80;;;;;;5096419;28;20035;-81
2022/09/19 00:39:25;;;;;;;0.70;0.70;;;16.50;61.80;;;;;;5078045;28;20024;-82
2022/09/19 00:41:50;;;;;;;0.80;0.80;;;16.50;61.80;;;;;;5095967;28;20036;-80
2022/09/19 00:44:22;;;;;;;0.70;0.70;;;16.50;61.80;;;;;;5096661;28;20028;-81
2022/09/19 00:47:05;;;;;;;0.80;0.80;;;16.50;61.80;;;;;;5095969;28;20427;-80
2022/09/19 00:49:33;;;;;;;0.85;0.85;;;16.50;61.80;;;;;;5096026;28;20020;-80
2022/09/19 00:52:03;;;;;;;0.70;0.70;;;16.50;61.80;;;;;;5077573;28;20034;-80
2022/09/19 00:54:34;;;;;;;0.80;0.80;;;16.50;61.80;;;;;;5095728;28;20028;-80
2022/09/19 00:57:03;;;;;;;0.90;0.90;;;16.50;61.80;;;;;;5095866;28;20477;-81
2022/09/19 00:59:33;;;;;;;0.80;0.80;;;16.50;61.80;;;;;;5096246;28;20109;-80
2022/09/19 01:02:02;;;;;;;0.70;0.70;;;16.60;61.90;;;;;;5095120;28;20038;-80
2022/09/19 01:04:35;;;;;;;0.85;0.85;;;16.50;61.90;;;;;;5095370;28;20081;-81
2022/09/19 01:07:37;;;;;;;0.82;0.82;;;16.50;61.90;;;;;;5077407;28;20123;-80
2022/09/19 01:10:23;;;;;;;1.08;1.08;;;16.50;62.00;;;;;;5095403;28;20067;-81
2022/09/19 01:13:01;;;;;;;0.80;0.80;;;16.50;62.00;;;;;;5095235;28;20035;-81
2022/09/19 01:15:45;;;;;;;1.20;1.20;;;16.50;62.00;;;;;;5095213;28;20027;-81
2022/09/19 01:18:11;;;;;;;0.70;0.70;;;16.50;62.10;;;;;;5095687;28;20024;-80
2022/09/19 01:21:40;;;;;;;1.08;1.08;;;16.50;62.10;;;;;;5095130;28;20479;-82
2022/09/19 01:24:21;;;;;;;0.95;0.95;;;16.50;62.10;;;;;;5086221;28;20033;-80
2022/09/19 01:27:00;;;;;;;0.90;0.90;;;16.50;62.10;;;;;;5094846;28;20042;-80
2022/09/19 01:29:36;;;;;;;0.80;0.80;;;16.50;62.10;;;;;;5095270;28;20016;-81
2022/09/19 01:32:08;;;;;;;0.82;0.82;;;16.50;62.20;;;;;;5094897;28;20031;-80
2022/09/19 01:34:42;;;;;;;0.80;0.80;;;16.50;62.20;;;;;;5094882;28;20377;-77
2022/09/19 01:37:17;;;;;;;0.80;0.80;;;16.50;62.20;;;;;;5095047;28;20028;-80
2022/09/19 01:39:46;;;;;;;1.00;1.00;;;16.50;62.20;;;;;;5076667;28;20516;-81
2022/09/19 01:42:14;;;;;;;0.80;0.80;;;16.50;62.20;;;;;;5077942;28;20424;-80
2022/09/19 01:44:40;;;;;;;0.98;0.98;;;16.50;62.20;;;;;;5094637;28;20052;-81
2022/09/19 01:47:13;;;;;;;0.80;0.80;;;16.50;62.30;;;;;;5095163;28;20062;-81
2022/09/19 01:50:16;;;;;;;0.63;0.63;;;16.50;62.30;;;;;;5093842;28;20020;-80
2022/09/19 01:53:06;;;;;;;0.90;0.90;;;16.50;62.20;;;;;;5093225;28;20035;-80
2022/09/19 01:55:40;;;;;;;0.95;0.95;;;16.50;62.20;;;;;;5093575;28;20374;-79
2022/09/19 01:58:26;;;;;;;0.83;0.83;;;16.50;62.30;;;;;;5094363;28;20103;-80
2022/09/19 02:01:04;;;;;;;0.90;0.90;;;16.50;62.30;;;;;;5094244;28;20091;-81
2022/09/19 02:03:36;;;;;;;0.90;0.90;;;16.50;62.30;;;;;;5094609;28;20027;-80
2022/09/19 02:06:13;;;;;;;0.98;0.93;;;16.50;62.30;;;;;;5093797;28;20028;-80
2022/09/19 02:08:51;;;;;;;0.80;0.80;;;16.50;62.30;;;;;;5093148;28;20447;-79
2022/09/19 02:11:22;;;;;;;1.00;1.00;;;16.40;62.30;;;;;;5093137;28;20051;-79
2022/09/19 02:13:56;;;;;;;0.80;0.80;;;16.40;62.30;;;;;;5093059;28;20481;-80
2022/09/19 02:16:31;;;;;;;1.02;1.02;;;16.40;62.30;;;;;;5093621;28;20032;-80
2022/09/19 02:19:21;;;;;;;1.02;1.00;;;16.40;62.30;;;;;;5094417;28;20024;-81
2022/09/19 02:21:54;;;;;;;0.95;0.95;;;16.40;62.40;;;;;;5094513;28;20031;-80
2022/09/19 02:24:27;;;;;;;1.00;1.00;;;16.40;62.40;;;;;;5094697;28;20032;-80
2022/09/19 02:26:58;;;;;;;0.90;0.77;;;16.40;62.40;;;;;;5094189;28;20024;-82
2022/09/19 02:29:30;;;;;;;0.90;0.90;;;16.40;62.40;;;;;;5093959;28;20030;-80
2022/09/19 02:31:57;;;;;;;1.33;1.23;;;16.40;62.40;;;;;;5093994;28;20064;-81
2022/09/19 02:34:24;;;;;;;1.10;1.10;;;16.40;62.40;;;;;;5092779;28;20043;-80
2022/09/19 02:37:06;;;;;;;1.23;1.15;;;16.40;62.40;;;;;;5094219;28;20039;-80
2022/09/19 02:39:55;;;;;;;1.08;1.00;;;16.40;62.40;;;;;;5093398;28;20477;-81
2022/09/19 02:42:28;;;;;;;1.25;1.15;;;16.40;62.20;;;;;;5094209;28;20104;-80
2022/09/19 02:45:36;;;;;;;1.00;1.00;;;16.40;62.40;;;;;;5093991;28;20039;-81
2022/09/19 02:48:11;;;;;;;1.10;1.10;;;16.40;62.30;;;;;;5075821;28;20056;-80
2022/09/19 02:50:52;;;;;;;1.40;1.30;;;16.40;62.40;;;;;;5094050;28;20020;-81
2022/09/19 02:53:24;;;;;;;0.90;0.90;;;16.40;62.40;;;;;;5093772;28;20032;-80
2022/09/19 02:55:56;;;;;;;1.05;1.05;;;16.40;62.90;;;;;;5076111;28;20054;-81
2022/09/19 02:58:23;;;;;;;1.10;1.10;;;16.40;62.40;;;;;;5075812;28;20150;-80
2022/09/19 03:00:54;;;;;;;1.05;1.05;;;16.40;62.40;;;;;;5093890;28;20060;-80
2022/09/19 03:06:16;;;;;;;;;;;16.40;62.40;;;;;;5094505;28;20386;-79
2022/09/19 03:08:46;;;;;;;1.10;1.10;;;16.40;62.20;;;;;;5093866;28;19911;-80
2022/09/19 03:11:15;;;;;;;1.70;1.60;;;16.40;62.40;;;;;;5078217;28;20036;-81
2022/09/19 03:13:42;;;;;;;1.25;1.17;;;16.40;62.30;;;;;;5079610;28;20068;-81
2022/09/19 03:16:23;;;;;;;1.20;1.20;;;16.40;62.40;;;;;;5097606;28;20459;-80
2022/09/19 03:18:54;;;;;;;1.40;1.30;;;16.40;62.30;;;;;;5079561;28;20035;-79
2022/09/19 03:21:23;;;;;;;1.52;1.33;;;16.40;62.40;;;;;;5098077;28;20495;-80
2022/09/19 03:23:52;;;;;;;1.23;1.23;;;16.30;62.40;;;;;;5079335;28;20024;-80
2022/09/19 03:26:28;;;;;;;1.40;1.30;;;16.30;62.50;;;;;;5079303;28;20028;-81
2022/09/19 03:28:54;;;;;;;1.63;1.52;;;16.30;62.50;;;;;;5097576;28;20084;-75
2022/09/19 03:31:21;;;;;;;1.15;1.15;;;16.40;62.50;;;;;;5097231;28;20035;-80
2022/09/19 03:33:48;;;;;;;1.27;1.27;;;16.40;62.50;;;;;;5079709;28;20029;-81
2022/09/19 03:36:15;;;;;;;1.02;1.02;;;16.30;62.40;;;;;;5097411;28;20032;-81
2022/09/19 03:38:44;;;;;;;1.30;1.23;;;16.40;62.50;;;;;;5079062;28;20047;-81
2022/09/19 03:41:14;;;;;;;1.55;1.42;;;16.40;62.50;;;;;;5078755;28;20036;-81
2022/09/19 03:43:43;;;;;;;1.60;1.50;;;16.40;62.50;;;;;;5097700;28;20109;-81
2022/09/19 03:46:17;;;;;;;1.30;1.30;;;16.30;62.50;;;;;;5097255;28;20016;-80
2022/09/19 03:48:44;;;;;;;1.88;1.45;;;16.40;62.50;;;;;;5079039;28;20394;-80
2022/09/19 03:51:11;;;;;;;1.45;1.35;;;16.30;62.50;;;;;;5078656;28;20040;-80
2022/09/19 03:53:37;;;;;;;1.45;1.35;;;16.40;62.50;;;;;;5096680;28;20040;-80
2022/09/19 03:56:04;;;;;;;1.60;1.50;;;16.40;62.50;;;;;;5096723;28;20111;-80
2022/09/19 03:58:30;;;;;;;1.70;1.60;;;16.40;62.50;;;;;;5097321;28;20055;-81
2022/09/19 04:00:57;;;;;;;1.85;1.40;;;16.40;62.50;;;;;;5096956;28;20024;-81
2022/09/19 04:03:23;;;;;;;1.25;1.15;;;16.40;62.60;;;;;;5078553;28;20068;-79
2022/09/19 04:05:51;;;;;;;1.35;1.25;;;16.40;62.50;;;;;;5078523;28;20024;-81
2022/09/19 04:08:18;;;;;;;1.40;1.30;;;16.40;62.50;;;;;;5096741;28;20463;-81
2022/09/19 04:10:43;;;;;;;1.40;1.30;;;16.40;62.50;;;;;;5097352;28;20024;-81
2022/09/19 04:13:10;;;;;;;1.80;1.65;;;16.40;62.50;;;;;;5096435;28;20508;-81
2022/09/19 04:15:37;;;;;;;1.30;1.30;;;16.40;62.50;;;;;;5078967;28;20055;-79
2022/09/19 04:18:03;;;;;;;1.85;1.75;;;16.40;62.50;;;;;;5096418;28;20039;-80
2022/09/19 04:20:30;;;;;;;1.20;1.20;;;16.40;62.50;;;;;;5096326;28;20069;-80
2022/09/19 04:23:00;;;;;;;1.13;1.13;;;16.40;62.40;;;;;;5095407;28;20035;-80
2022/09/19 04:25:35;;;;;;;1.67;1.58;;;16.50;62.50;;;;;;5078324;28;20046;-80
2022/09/19 04:28:05;;;;;;;1.55;1.45;;;16.50;62.40;;;;;;5096354;28;20040;-80
2022/09/19 04:30:34;;;;;;;1.70;1.60;;;16.50;62.40;;;;;;5097040;28;20496;-79
2022/09/19 04:33:02;;;;;;;1.38;1.27;;;16.50;62.40;;;;;;5096312;28;20063;-79
2022/09/19 04:35:29;;;;;;;1.60;1.50;;;16.60;62.40;;;;;;5077874;28;20036;-81
2022/09/19 04:37:55;;;;;;;1.48;1.38;;;16.60;62.40;;;;;;5096217;28;20086;-80
2022/09/19 04:40:21;;;;;;;1.60;1.50;;;16.60;62.40;;;;;;5096095;28;20407;-79
2022/09/19 04:42:47;;;;;;;1.70;1.60;;;16.60;62.20;;;;;;5084525;28;20371;-80
2022/09/19 04:45:20;;;;;;;1.92;1.42;;;16.60;62.30;;;;;;5096251;28;20161;-80
2022/09/19 04:47:47;;;;;;;1.70;1.60;;;16.60;62.20;;;;;;5095887;28;20031;-80
2022/09/19 04:50:14;;;;;;;1.70;1.60;;;16.60;62.10;;;;;;5095876;28;20450;-81
2022/09/19 04:52:40;;;;;;;1.52;1.40;;;16.60;62.10;;;;;;5096201;28;20055;-80
2022/09/19 04:55:08;;;;;;;1.70;1.60;;;16.70;62.20;;;;;;5095674;28;20028;-80
2022/09/19 04:57:34;;;;;;;1.75;1.65;;;16.70;62.20;;;;;;5095536;28;20032;-80
2022/09/19 05:00:00;;;;;;;1.40;1.30;;;16.70;62.10;;;;;;5094452;28;20210;-80
2022/09/19 05:02:28;;;;;;;1.45;1.35;;;16.70;62.10;;;;;;5095615;28;20849;-80
2022/09/19 05:04:55;;;;;;;1.63;1.52;;;16.70;62.00;;;;;;5095626;28;20032;-78
2022/09/19 05:07:22;;;;;;;1.50;1.40;;;16.80;62.00;;;;;;5095484;28;20024;-80
2022/09/19 05:09:48;;;;;;;1.35;1.25;;;16.90;62.00;;;;;;5095507;28;20081;-80
2022/09/19 05:12:13;;;;;;;1.50;1.40;;;16.80;61.90;;;;;;5094325;28;20032;-80
2022/09/19 05:14:39;;;;;;;1.38;1.27;;;16.90;61.90;;;;;;5093848;28;20220;-81
2022/09/19 05:17:05;;;;;;;1.67;1.00;;;16.90;61.80;;;;;;5095313;28;20091;-81
2022/09/19 05:19:32;;;;;;;1.42;1.35;;;17.00;61.80;;;;;;5095324;28;20039;-81
2022/09/19 05:21:57;;;;;;;1.58;1.48;;;17.00;61.70;;;;;;5094471;28;20028;-82
2022/09/19 05:24:23;;;;;;;1.38;1.38;;;17.00;61.70;;;;;;5096541;28;20408;-81
2022/09/19 05:26:49;;;;;;;1.67;1.40;;;17.00;61.70;;;;;;5095493;28;20021;-79
2022/09/19 05:29:15;;;;;;;1.67;1.40;;;17.00;61.80;;;;;;5093780;28;20454;-80
2022/09/19 05:31:41;;;;;;;1.77;1.67;;;17.00;62.00;;;;;;5094948;28;20031;-80
2022/09/19 05:34:11;;;;;;;1.52;1.42;;;17.00;62.00;;;;;;5095032;28;20489;-80
2022/09/19 05:36:38;;;;;;;1.40;1.30;;;17.10;61.90;;;;;;5094860;28;20024;-80
2022/09/19 05:39:04;;;;;;;1.05;1.05;;;17.10;61.80;;;;;;5094837;28;20043;-81
2022/09/19 05:41:30;;;;;;;1.40;1.30;;;17.10;61.80;;;;;;5094949;28;20032;-81
2022/09/19 05:43:55;;;;;;;1.50;1.40;;;17.10;61.80;;;;;;5093356;28;20562;-79
2022/09/19 05:46:21;;;;;;;1.30;1.23;;;17.10;61.80;;;;;;5094810;28;20522;-80
2022/09/19 05:48:48;;;;;;;1.42;1.33;;;17.10;61.80;;;;;;5094687;28;20097;-80
2022/09/19 05:51:14;;;;;;;1.42;1.33;;;17.10;61.80;;;;;;5093495;28;20028;-80
2022/09/19 05:53:52;;;;;;;1.45;1.35;;;17.10;61.80;;;;;;5094829;28;20030;-81
2022/09/19 05:56:18;;;;;;;1.48;1.38;;;17.10;61.70;;;;;;5094594;28;20115;-80
2022/09/19 05:58:44;;;;;;;1.50;1.40;;;17.20;61.80;;;;;;5094674;28;20056;-81
2022/09/19 06:01:11;;;;;;;1.23;1.13;;;17.20;61.70;;;;;;5094591;28;20031;-80
2022/09/19 06:03:38;;;;;;;1.35;1.23;;;17.20;61.70;;;;;;5094969;28;20024;-80
2022/09/19 06:06:11;;;;;;;1.63;1.30;;;17.20;61.70;;;;;;5094698;28;20024;-80
2022/09/19 06:08:38;;;;;;;1.38;1.27;;;17.20;61.70;;;;;;5093401;28;20367;-81
2022/09/19 06:11:04;;;;;;;1.38;1.25;;;17.30;61.70;;;;;;5094465;28;20032;-84
2022/09/19 06:14:15;;;;;;;1.38;1.30;;;17.30;61.60;;;;;;5094249;28;20027;-81
2022/09/19 06:16:20;;;;;;;1.35;1.25;;;17.30;61.50;;;;;;5083085;28;20537;-80
2022/09/19 06:18:46;;;;;;;1.30;1.30;;;17.40;61.50;;;;;;5093059;28;20027;-80
2022/09/19 06:21:12;;;;;;;1.60;1.50;;;17.40;61.50;;;;;;5092982;28;20115;-80
2022/09/19 06:23:39;;;;;;;1.40;1.30;;;17.40;61.40;;;;;;5094048;28;20024;-79
2022/09/19 06:26:04;;;;;;;1.45;1.35;;;17.50;61.50;;;;;;5092916;28;20036;-79
2022/09/19 06:28:30;;;;;;;1.52;1.42;;;17.50;61.40;;;;;;5094107;28;20035;-80
2022/09/19 06:31:03;;;;;;;1.30;1.20;;;17.50;61.30;;;;;;5093182;28;20458;-81
2022/09/19 06:33:29;;;;;;;1.10;1.10;;;17.60;61.20;;;;;;5094189;28;20032;-80
2022/09/19 06:35:59;;;;;;;2.05;1.25;;;17.60;61.10;;;;;;5092896;28;20028;-78
2022/09/19 06:38:26;;;;;;;1.50;1.40;;;17.60;61.10;;;;;;5092972;28;20039;-80
2022/09/19 06:40:52;;;;;;;1.40;1.40;;;17.60;61.10;;;;;;5093219;28;20180;-80
2022/09/19 06:43:17;;;;;;;2.15;1.40;;;17.60;61.00;;;;;;5092453;28;20139;-80
2022/09/19 06:45:43;;;;;;;1.58;1.30;;;17.50;60.90;;;;;;5093679;28;20036;-79
2022/09/19 06:48:10;;;;;;;1.30;1.30;;;17.60;60.90;;;;;;5092972;28;20024;-81
2022/09/19 06:50:36;;;;;;;1.30;1.20;;;17.50;60.90;;;;;;5092967;28;20046;-81
2022/09/19 06:53:02;;;;;;;2.17;1.63;;;17.50;60.90;;;;;;5093239;28;20032;-79
2022/09/19 06:55:29;;;;;;;1.35;1.35;;;17.50;60.90;;;;;;5093988;28;20474;-81
2022/09/19 06:57:57;;;;;;;1.40;1.30;;;17.40;60.80;;;;;;5095937;28;20084;-80
2022/09/19 07:00:25;;;;;;;1.55;1.45;;;17.40;60.80;;;;;;5098012;28;20036;-80
2022/09/19 07:03:03;;;;;;;1.63;1.52;;;17.40;60.90;;;;;;5095381;28;20043;-79
2022/09/19 07:05:34;;;;;;;1.40;1.30;;;17.40;60.90;;;;;;5095501;28;20036;-82
2022/09/19 07:08:00;;;;;;;1.58;1.48;;;17.30;60.90;;;;;;5093307;28;20024;-80
2022/09/19 07:10:26;;;;;;;1.67;1.38;;;17.30;60.90;;;;;;5093033;28;20031;-80
2022/09/19 07:12:59;;;;;;;1.98;1.77;;;17.30;60.90;;;;;;5094211;28;20039;-81
2022/09/19 07:15:24;;;;;;;1.60;1.50;;;17.30;60.90;;;;;;5094486;28;20373;-80
2022/09/19 07:17:54;;;;;;;1.10;1.10;;;17.30;60.90;;;;;;5092840;28;20028;-81
2022/09/19 07:20:20;;;;;;;1.20;1.20;;;17.20;60.90;;;;;;5095226;28;20039;-79
2022/09/19 07:22:47;;;;;;;1.60;1.50;;;17.20;61.00;;;;;;5076633;28;20032;-81
2022/09/19 07:25:13;;;;;;;1.58;1.48;;;17.20;60.90;;;;;;5092962;28;20137;-80
2022/09/19 07:27:42;;;;;;;1.60;1.50;;;17.20;60.90;;;;;;5094184;28;20465;-80
2022/09/19 07:30:08;;;;;;;1.48;1.38;;;17.20;60.80;;;;;;5092491;28;20027;-80
2022/09/19 07:32:34;;;;;;;1.70;1.60;;;17.20;60.80;;;;;;5094383;28;20118;-82
2022/09/19 07:34:59;;;;;;;1.40;1.35;;;17.20;60.80;;;;;;5093971;28;20103;-80
2022/09/19 07:37:25;;;;;;;1.63;1.52;;;17.30;60.80;;;;;;5094382;28;20024;-81
2022/09/19 07:39:52;;;;;;;1.65;1.55;;;17.30;60.70;;;;;;5093912;28;20027;-82
2022/09/19 07:42:20;;;;;;;1.50;1.40;;;17.30;60.60;;;;;;5092604;28;20079;-80
2022/09/19 07:44:45;;;;;;;1.52;1.42;;;17.30;60.60;;;;;;5094149;28;20035;-85
2022/09/19 07:47:26;;;;;;;1.55;1.45;;;17.40;60.50;;;;;;5095018;28;20111;-80
2022/09/19 07:49:54;;;;;;;1.23;1.13;;;17.40;60.40;;;;;;5094137;28;20027;-80
2022/09/19 07:52:19;;;;;;;1.20;1.10;;;17.50;60.50;;;;;;5093964;28;20040;-81
2022/09/19 07:54:45;;;;;;;1.38;1.23;;;17.50;60.30;;;;;;5093743;28;20043;-80
2022/09/19 07:57:11;;;;;;;1.60;1.50;;;17.60;60.20;;;;;;5093289;28;20055;-80
2022/09/19 07:59:36;;;;;;;1.42;1.33;;;17.60;60.00;;;;;;5097255;28;20027;-80
2022/09/19 08:02:03;;;;;;;1.48;1.38;;;17.70;59.90;;;;;;5097215;28;20035;-81
2022/09/19 08:04:29;;;;;;;1.50;1.40;;;17.80;59.80;;;;;;5097538;28;20051;-80
2022/09/19 08:06:55;;;;;;;1.38;1.27;;;17.80;59.70;;;;;;5095890;28;20025;-80
2022/09/19 08:09:20;;;;;;;1.45;1.35;;;17.80;59.60;;;;;;5097584;28;20032;-83
2022/09/19 08:11:46;;;;;;;1.25;1.20;;;17.80;59.50;;;;;;5096828;28;20032;-80
2022/09/19 08:14:12;;;;;;;1.35;1.25;;;17.80;59.40;;;;;;5097059;28;20038;-77
2022/09/19 08:16:38;;;;;;;1.60;1.50;;;17.80;59.30;;;;;;5096414;28;20023;-80
2022/09/19 08:19:04;;;;;;;1.60;1.50;;;17.90;59.30;;;;;;5096174;28;20504;-82
2022/09/19 08:21:31;;;;;;;1.20;1.13;;;17.90;59.20;;;;;;5097690;28;20486;-81
2022/09/19 08:23:57;;;;;;;1.50;1.40;;;17.90;59.20;;;;;;5097342;28;20036;-80
2022/09/19 08:26:24;;;;;;;1.42;1.33;;;17.90;59.10;;;;;;5096236;28;20069;-80
2022/09/19 08:28:51;;;;;;;1.50;1.40;;;17.90;59.00;;;;;;5097135;28;20526;-81
2022/09/19 08:31:17;;;;;;;1.38;1.27;;;17.90;59.00;;;;;;5097740;28;20480;-80
2022/09/19 08:33:42;;;;;;;1.45;1.30;;;17.90;58.80;;;;;;5095884;28;20024;-80
2022/09/19 08:36:10;;;;;;;1.50;1.40;;;18.00;58.70;;;;;;5097324;28;20484;-80
2022/09/19 08:38:36;;;;;;;1.63;1.17;;;17.90;58.70;;;;;;5095632;28;20020;-81
2022/09/19 08:41:39;;;;;;;1.60;1.50;;;18.00;58.70;;;;;;5096355;28;20070;-80
2022/09/19 08:44:22;;;;;;;1.42;1.42;;;18.00;58.10;;;;;;5096455;28;20509;-80
2022/09/19 08:47:10;;;;;;;1.17;1.10;;;18.00;58.40;;;;;;5096634;28;20020;-80
2022/09/19 08:49:40;;;;;;;2.00;1.45;;;18.10;57.90;;;;;;5096918;28;20024;-81
2022/09/19 08:52:07;;;;;;;1.30;1.20;;;18.00;58.10;;;;;;5095469;28;20470;-79
2022/09/19 08:54:45;;;;;;;1.27;1.20;;;18.00;58.10;;;;;;5095323;28;20031;-80
2022/09/19 08:57:25;;;;;;;1.15;1.08;;;18.00;58.10;;;;;;5095544;28;20031;-82
2022/09/19 08:59:54;;;;;;;1.17;1.15;;;18.00;58.00;;;;;;5096334;28;20036;-81
2022/09/19 09:02:41;;;;;;;1.30;1.30;;;18.00;58.10;;;;;;5096463;28;20032;-80
2022/09/19 09:05:33;;;;;;;0.98;0.98;;;18.10;58.10;;;;;;5096010;28;20119;-81
2022/09/19 09:08:21;;;;;;;1.15;1.15;;;18.10;57.70;;;;;;5096357;28;20359;-81
2022/09/19 09:10:59;;;;;;;1.30;1.20;;;18.20;57.30;;;;;;5094990;28;20028;-80
2022/09/19 09:13:33;;;;;;;1.20;1.20;;;18.30;57.70;;;;;;5096300;28;20032;-80
2022/09/19 09:16:33;;;;;;;1.40;1.35;;;18.40;57.70;;;;;;5094677;28;20024;-80
2022/09/19 09:19:30;;;;;;;1.48;1.40;;;18.40;57.00;;;;;;5096306;28;20381;-80
2022/09/19 09:21:59;;;;;;;1.20;1.10;;;18.50;56.90;;;;;;5095157;28;20032;-80
2022/09/19 09:24:40;;;;;;;1.25;1.25;;;18.50;57.20;;;;;;5096400;28;20046;-83
2022/09/19 09:27:13;;;;;;;1.08;1.08;;;18.60;57.10;;;;;;5095959;28;20351;-80
2022/09/19 09:29:45;;;;;;;1.50;1.40;;;18.70;57.10;;;;;;5095190;28;20024;-79
2022/09/19 09:32:23;;;;;;;1.02;1.02;;;18.70;56.90;;;;;;5095639;28;20081;-82
2022/09/19 09:35:06;;;;;;;0.93;0.93;;;18.70;56.80;;;;;;5094790;28;20458;-80
2022/09/19 09:37:44;;;;;;;1.48;1.20;;;18.70;56.70;;;;;;5095083;28;20020;-78
2022/09/19 09:41:45;;;;;;;1.13;1.00;;;18.70;56.80;;;;;;5096569;28;20032;-80
2022/09/19 09:43:06;;;;;;;;;;;18.70;56.60;;;;;;5096296;28;20107;-80
2022/09/19 09:45:39;;;;;;;1.55;1.20;;;18.60;55.90;;;;;;5095568;28;20003;-83
2022/09/19 09:48:21;;;;;;;1.23;1.20;;;18.60;57.00;;;;;;5095319;28;20028;-79
2022/09/19 09:51:15;;;;;;;1.25;1.15;;;18.60;57.00;;;;;;5095582;28;20028;-79
2022/09/19 09:56:14;;;;;;;1.35;1.35;;;18.60;56.80;;;;;;5077051;28;20035;-83
2022/09/19 09:56:59;;;;;;;1.10;1.10;;;18.60;56.90;;;;;;5095367;28;20039;-81
2022/09/19 10:05:51;;;;;;;1.30;1.20;;;18.70;56.80;;;;;;5096228;28;20097;-77
2022/09/19 10:08:33;;;;;;;1.15;1.10;;;18.70;56.20;;;;;;5075526;28;20038;-80
2022/09/19 10:11:17;;;;;;;1.00;1.00;;;18.70;56.80;;;;;;5096351;28;20028;-80
2022/09/19 10:13:51;;;;;;;1.38;1.17;;;18.70;56.40;;;;;;5077322;28;20085;-76
2022/09/19 10:16:19;;;;;;;1.05;1.05;;;18.80;56.80;;;;;;5061668;28;20554;-79
2022/09/19 10:18:57;;;;;;;1.02;1.02;;;18.90;56.70;;;;;;5077476;28;20069;-81
2022/09/19 10:21:23;;;;;;;1.10;1.10;;;18.90;56.40;;;;;;5095295;28;20016;-80
2022/09/19 10:23:49;;;;;;;1.42;1.33;;;19.00;56.50;;;;;;5096371;28;20031;-80
2022/09/19 10:26:20;;;;;;;1.02;1.02;;;19.10;56.30;;;;;;5095922;28;20032;-81
2022/09/19 10:28:53;;;;;;;1.30;1.20;;;19.20;56.70;;;;;;5078716;28;20032;-78
2022/09/19 10:31:34;;;;;;;1.30;1.30;;;19.20;56.00;;;;;;5095780;28;20111;-82
2022/09/19 10:34:04;;;;;;;1.45;1.10;;;19.20;55.90;;;;;;5095552;28;20374;-82
2022/09/19 10:36:34;;;;;;;1.15;1.10;;;19.20;55.70;;;;;;5094726;28;20493;-81
2022/09/19 10:39:07;;;;;;;1.48;1.38;;;19.20;55.60;;;;;;5077513;28;20052;-79
2022/09/19 10:41:37;;;;;;;1.27;1.17;;;19.10;55.50;;;;;;5077071;28;20032;-81
2022/09/19 10:44:08;;;;;;;1.02;1.00;;;19.10;55.50;;;;;;5095390;28;20055;-80
2022/09/19 10:46:42;;;;;;;0.90;0.90;;;19.10;55.50;;;;;;5077311;28;20111;-81
2022/09/19 10:49:22;;;;;;;1.10;1.00;;;19.10;55.50;;;;;;5077370;28;20104;-78
2022/09/19 10:51:51;;;;;;;1.13;0.93;;;19.10;55.20;;;;;;5094903;28;20036;-81
2022/09/19 10:54:36;;;;;;;1.10;1.10;;;19.10;55.30;;;;;;5077665;28;20028;-79
2022/09/19 10:57:02;;;;;;;;;;;19.10;54.70;;;;;;5096555;28;20103;-81
2022/09/19 10:59:38;;;;;;;1.23;1.10;;;19.10;54.00;;;;;;5077971;28;19981;-81
2022/09/19 11:02:24;;;;;;;1.33;1.23;;;19.20;55.10;;;;;;5095891;28;20093;-80
2022/09/19 11:05:02;;;;;;;0.90;0.90;;;19.10;53.90;;;;;;5095948;28;20066;-79
2022/09/19 11:07:33;;;;;;;1.25;1.25;;;19.20;55.10;;;;;;5096311;28;20020;-80
2022/09/19 11:09:59;;;;;;;1.00;1.00;;;19.20;55.00;;;;;;5096335;28;20439;-77
2022/09/19 11:12:30;;;;;;;1.00;1.00;;;19.20;55.10;;;;;;5077541;28;20074;-79
2022/09/19 11:14:56;;;;;;;0.90;0.90;;;19.30;55.00;;;;;;5077819;28;20482;-80
2022/09/19 11:17:27;;;;;;;1.15;1.13;;;19.30;54.90;;;;;;5095311;28;20466;-83
2022/09/19 11:20:16;;;;;;;1.15;1.15;;;19.40;54.80;;;;;;5077505;28;20028;-79
2022/09/19 11:23:02;;;;;;;1.10;1.10;;;19.40;54.30;;;;;;5095672;28;20089;-79
2022/09/19 11:25:44;;;;;;;1.00;1.00;;;19.40;54.60;;;;;;5077431;28;20421;-77
2022/09/19 11:28:43;;;;;;;1.10;1.02;;;19.40;54.40;;;;;;5096034;28;20043;-81
2022/09/19 11:31:17;;;;;;;1.55;1.45;;;19.30;53.80;;;;;;5078070;28;20075;-79
2022/09/19 11:34:12;;;;;;;1.15;1.15;;;19.30;54.40;;;;;;5098927;28;20039;-79
2022/09/19 11:37:21;;;;;;;0.90;0.90;;;19.30;54.50;;;;;;5009918;28;20038;-80
2022/09/19 11:40:10;;;;;;;1.52;1.23;;;19.30;53.90;;;;;;5098918;28;20027;-80
2022/09/19 11:42:42;;;;;;;0.70;0.70;;;19.40;53.30;;;;;;5071616;28;20151;-80
2022/09/19 11:45:17;;;;;;;1.38;1.27;;;19.40;54.30;;;;;;5097771;28;20373;-79
2022/09/19 11:47:52;;;;;;;0.93;0.93;;;19.40;54.00;;;;;;5098737;28;20103;-80
2022/09/19 11:50:18;;;;;;;;;;;19.40;54.00;;;;;;5097099;28;20020;-80
2022/09/19 11:53:10;;;;;;;0.93;0.93;;;19.40;53.10;;;;;;5096689;28;19919;-80
2022/09/19 11:55:56;;;;;;;1.33;1.10;;;19.50;53.30;;;;;;5081756;28;20528;-80
2022/09/19 11:59:02;;;;;;;0.73;0.73;;;19.50;54.00;;;;;;5096625;28;20027;-79
2022/09/19 12:01:46;;;;;;;0.90;0.90;;;19.60;53.40;;;;;;5092131;28;20445;-79
2022/09/19 12:04:45;;;;;;;1.00;1.00;;;19.60;53.90;;;;;;5097066;28;20546;-79
2022/09/19 12:07:16;;;;;;;2.08;1.30;;;19.60;52.50;;;;;;5083731;28;20488;-78
2022/09/19 12:09:51;;;;;;;1.10;1.10;;;19.60;53.60;;;;;;5097722;28;20035;-80
2022/09/19 12:12:21;;;;;;;1.58;1.48;;;19.70;53.30;;;;;;5096454;28;20040;-79
2022/09/19 12:14:52;;;;;;;1.20;1.10;;;19.70;53.30;;;;;;5098322;28;20435;-81
2022/09/19 12:17:27;;;;;;;1.02;1.00;;;19.70;53.20;;;;;;5096909;28;20024;-79
2022/09/19 12:20:07;;;;;;;1.00;1.00;;;19.70;52.90;;;;;;5096340;28;20020;-80
2022/09/19 12:22:34;;;;;;;0.93;0.93;;;19.70;52.80;;;;;;5097882;28;20380;-81
2022/09/19 12:25:18;;;;;;;1.15;1.05;;;19.70;53.00;;;;;;5095975;28;20028;-80
2022/09/19 12:27:51;;;;;;;1.27;0.85;;;19.60;52.30;;;;;;5098287;28;20131;-81
2022/09/19 12:30:23;;;;;;;0.95;0.95;;;19.60;53.10;;;;;;5097755;28;20452;-80
2022/09/19 12:33:07;;;;;;;0.93;0.93;;;19.50;53.00;;;;;;5096647;28;20394;-80
2022/09/19 12:35:40;;;;;;;0.80;0.80;;;19.60;53.00;;;;;;5097960;28;20039;-81
2022/09/19 12:38:30;;;;;;;1.17;1.15;;;19.60;53.00;;;;;;5097561;28;20082;-79
2022/09/19 12:41:13;;;;;;;1.70;1.20;;;19.60;52.70;;;;;;5096392;28;20039;-79
2022/09/19 12:43:49;;;;;;;1.00;1.00;;;19.60;52.90;;;;;;5097529;28;20059;-81
2022/09/19 12:46:35;;;;;;;0.80;0.80;;;19.70;52.90;;;;;;5079554;28;20115;-81
2022/09/19 12:49:19;;;;;;;0.70;0.70;;;19.90;52.50;;;;;;5097499;28;20074;-80
2022/09/19 12:52:06;;;;;;;1.02;1.00;;;20.10;52.20;;;;;;5079276;28;20119;-79
2022/09/19 12:55:03;;;;;;;1.08;1.05;;;20.30;52.00;;;;;;5079335;28;20115;-81
2022/09/19 12:57:40;;;;;;;0.93;0.93;;;20.40;51.90;;;;;;5078738;28;20024;-81
2022/09/19 13:00:13;;;;;;;0.82;0.82;;;20.50;52.00;;;;;;5079256;28;20111;-81
2022/09/19 13:02:43;;;;;;;0.88;0.88;;;20.60;51.50;;;;;;5096787;28;20032;-79
2022/09/19 13:05:32;;;;;;;0.82;0.82;;;20.70;51.50;;;;;;5097233;28;20024;-80
2022/09/19 13:08:07;;;;;;;0.80;0.80;;;20.70;51.20;;;;;;5096683;28;20064;-81
2022/09/19 13:10:42;;;;;;;0.98;0.98;;;20.80;51.60;;;;;;5097060;28;20024;-82
2022/09/19 13:13:20;;;;;;;;;;;20.80;51.50;;;;;;5079238;28;20032;-80
2022/09/19 13:15:58;;;;;;;0.70;0.70;;;20.80;50.60;;;;;;5096574;28;19911;-80
2022/09/19 13:24:12;;;;;;;0.63;0.63;;;20.90;51.10;;;;;;5096397;28;20082;-80
2022/09/19 13:26:38;;;;;;;0.90;0.90;;;20.90;51.00;;;;;;5096756;28;20119;-80
2022/09/19 13:29:27;;;;;;;0.80;0.80;;;21.00;51.10;;;;;;5078242;28;20032;-80
2022/09/19 13:31:55;;;;;;;0.90;0.90;;;21.00;50.30;;;;;;5083637;28;20055;-80
2022/09/19 13:34:33;;;;;;;0.60;0.60;;;21.10;50.80;;;;;;5078188;28;20051;-80
2022/09/19 13:37:22;;;;;;;0.90;0.90;;;21.10;50.30;;;;;;5078448;28;20084;-80